Achim Manz-Bothe 1:30:00 row

20,816

Meters

1:30:00.0

Time

2:09.7

Pace

1263

Calories

110

Heart Rate

Average Watts160
Calories Per Hour842
Stroke Rate28

September 13, 2019 12:45:00

Workout
RowErg

Workout Type
Fixed Time

Weight Class
Hwt

Verified
Yes

Entered
Concept2 Utility

Splits

Time Meters Pace Watts Cal/Hr Cal S/M
1:30:00.0 20,816 2:09.7 160 842 1263 28 110
3:00.0 683 2:11.7 153 820 41 26 108
6:00.0 686 2:11.1 155 820 41 27 110
9:00.0 686 2:11.1 155 820 41 27 110
12:00.0 690 2:10.4 158 840 42 27 108
15:00.0 688 2:10.8 156 820 41 28 108
18:00.0 686 2:11.1 155 820 41 28 108
21:00.0 689 2:10.6 157 840 42 28 108
24:00.0 690 2:10.4 158 840 42 28 107
27:00.0 691 2:10.2 158 840 42 28 110
30:00.0 690 2:10.4 158 840 42 28 106
33:00.0 693 2:09.8 160 840 42 28 110
36:00.0 691 2:10.2 158 840 42 28 107
39:00.0 690 2:10.4 158 840 42 28 108
42:00.0 691 2:10.2 158 840 42 28 109
45:00.0 691 2:10.2 158 840 42 28 109
48:00.0 692 2:10.0 159 840 42 29 109
51:00.0 695 2:09.4 161 840 42 28 111
54:00.0 697 2:09.1 163 840 42 28 112
57:00.0 696 2:09.3 162 840 42 29 111
1:00:00.0 696 2:09.3 162 840 42 28 112
1:03:00.0 695 2:09.4 161 840 42 28 108
1:06:00.0 700 2:08.5 165 860 43 28 111
1:09:00.0 700 2:08.5 165 860 43 28 113
1:12:00.0 704 2:07.8 168 860 43 28 114
1:15:00.0 701 2:08.3 165 860 43 29 114
1:18:00.0 702 2:08.2 166 860 43 29 112
1:21:00.0 701 2:08.3 165 860 43 28 112
1:24:00.0 705 2:07.6 168 860 43 29 115
1:27:00.0 702 2:08.2 166 860 43 28 114
1:30:00.0 692 2:10.0 159 840 42 29 114